Airfield :
LOGIN :

Register | Disclaimer

   EN    FR    IT 

 










Legend :    VFR   Marginal VFR   IFR   Intensive IFR   Very Intensive IFR
Visi :
Ceiling :
>= 8 km
>= 3000ft
5 to 8 km
1000 to 3000 ft
1500m to 5 km
500 to 1000 ft
800 to 1500m
200 to 500 ft
< 800m
< 200 ft
Symbols :   Thunderstorms  Fog  Heavy snow  Heavy precipitations  Wind > 20 kt
SIGMETs :     Misc.  Thunderstorms  Icing  Turbulence  Mountain Waves  Volcanic Ashes







- Airport Elevation : 640 ft
- IATA code : AOC


EDAC - Altenburg-Nobitz

CURRENT METAR :
  • 172250Z AUTO 20008KT 170V240 9999 // OVC130/// 20/14 Q1011

EXPIRED METARs :
  • 172220Z AUTO 20006KT 9999 // FEW047/// BKN120/// OVC150/// 20/13 Q1011
  • 172150Z AUTO 22009KT 9999 // BKN045/// OVC130/// 20/13 Q1011
  • 172120Z AUTO 21007KT 180V240 9999 // SCT054/// SCT140/// BKN160/// 20/13 Q1011
  • 172050Z AUTO 21007KT 190V250 9999 // FEW057/// SCT160/// BKN190/// 20/13 Q1011
  • 172020Z AUTO 22009KT 9999 // FEW058/// SCT082/// OVC170/// 21/13 Q1011

TAF TAF EDAC
Valid from the 17 at 18:00 until the 18 at 03:00 UTC


171700Z 1718/1803 21006KT 9999 SCT040
No reported NOTAMs for that airfield.



MET'MAP, your aeronautical weather chart ! - Copyright ORBIFLY December 2007 - Disclaimer

ORBIFLY MET'MAP TEAM :

Programming & Development : Alexandra Zaïnal
Concept & Development : Baudouin d'Aumeries
Co-Development & Prog : Marc-Olivier Méhu
Technical & hardware support : Manuel Goepfert

Contact : metmap@orbifly.com




SOURCES & CREDITS :

   NOAA